INFORMAÇÕES DO AERODROMO
Icao Aerodromo SBMG Nome do Aerodromo Regional de Maringá - Sílvio Nane Junior Airport Cidade Maringá
Código GPS SBMG Elevação Média 1788 ft Tipo de Aerodromo Aeroporto Médio Porte

INFORMAÇÃO DE PISTA
Pista 9 Comprimento da Pista 6890 ft Largura da Pista 148 ft
Elevação da Pista 0 ft Distância de Area de Escape da Pista 0 ft Orientação da Pista 0
Pista 27 Comprimento da Pista 6890 ft Largura da Pista 148 ft
Elevação da Pista 0 ft Distância de Area de Escape da Pista 0 ft Orientação da Pista 0

FREQUÊNCIAS DO AERODROMO
Tipo AFIS Nome RDO Frequência 131.95 MHZ

INFORMAÇÕES DE NAVEGAÇÃO PRÓXIMO AO AERODROMO

Informações de Meteorologia(METAR atual)
METAR DE SBMG
ADDS - METARS form results

(0131 UTC 26 February 2018)
Data provider http://aviationweather.gov/adds/metars/
 
METAR text: SBMG 260100Z 08006KT CAVOK 27/16 Q1014
Conditions at: SBMG (MARINGA , BR) observed 0100 UTC 26 February 2018
Temperature: 27.0°C (81°F)
Dewpoint: 16.0°C (61°F) [RH = 51%]
Pressure (altimeter): 29.94 inches Hg (1014.0 mb)
Winds: from the E (80 degrees) at 7 MPH (6 knots; 3.1 m/s)
Visibility: 6 or more miles (10+ km)
Ceiling: ceiling and visibility are OK
Clouds: unknown
Weather: no significant weather observed at this time

MAPA DO AERODROMO


Desenvolvido por Virtual Airlines Manager




Modificado por Servidor Brasil Amigos